Time;durP1;ratioP1;P1;durP2;ratioP2;P2;SDS_P1;SDS_P2;PMS_P1;PMS_P2;Temp;Humidity;BMP_temperature;BMP_pressure;BME280_temperature;BME280_humidity;BME280_pressure;Samples;Min_cycle;Max_cycle;Signal;HPM_P1;HPM_P2
2022/05/29 00:01:57;;;;;;;14.68;3.35;;;9.80;99.90;;;;;;5052410;28;20040;-41
2022/05/29 00:04:23;;;;;;;20.50;3.17;;;9.70;99.90;;;;;;5052256;28;20040;-42
2022/05/29 00:06:52;;;;;;;11.75;3.67;;;9.80;99.90;;;;;;5049535;28;20063;-40
2022/05/29 00:09:25;;;;;;;18.67;3.05;;;9.60;99.90;;;;;;5052162;28;20471;-41
2022/05/29 00:11:51;;;;;;;15.13;2.72;;;9.60;99.90;;;;;;5052022;28;20062;-42
2022/05/29 00:14:17;;;;;;;19.00;3.38;;;11.60;99.90;;;;;;5050442;28;20098;-40
2022/05/29 00:16:43;;;;;;;15.23;2.80;;;9.60;99.90;;;;;;5052388;28;20036;-42
2022/05/29 00:19:09;;;;;;;11.82;2.92;;;10.70;99.90;;;;;;5051645;28;20044;-42
2022/05/29 00:21:36;;;;;;;17.83;3.00;;;9.50;99.90;;;;;;5051828;28;20072;-42
2022/05/29 00:24:02;;;;;;;24.42;4.47;;;9.50;99.90;;;;;;5051746;28;20127;-42
2022/05/29 00:26:28;;;;;;;14.48;2.75;;;9.40;99.90;;;;;;5051423;28;20033;-43
2022/05/29 00:28:54;;;;;;;16.15;3.67;;;10.20;99.90;;;;;;5052566;28;20051;-43
2022/05/29 00:31:21;;;;;;;16.05;3.97;;;9.20;99.90;;;;;;5050859;28;20044;-41
2022/05/29 00:33:47;;;;;;;12.52;3.08;;;9.60;99.90;;;;;;5052746;28;20063;-43
2022/05/29 00:36:15;;;;;;;11.57;2.60;;;9.50;99.90;;;;;;5053726;28;20063;-41
2022/05/29 00:38:42;;;;;;;12.57;2.75;;;9.40;99.90;;;;;;5051343;28;20040;-40
2022/05/29 00:41:17;;;;;;;10.93;2.88;;;9.50;99.90;;;;;;5050498;28;20546;-41
2022/05/29 00:44:04;;;;;;;12.70;3.05;;;11.00;99.90;;;;;;5054022;28;20060;-43
2022/05/29 00:46:33;;;;;;;15.57;3.25;;;9.50;99.90;;;;;;5052444;28;20391;-42
2022/05/29 00:48:58;;;;;;;15.40;2.92;;;9.40;99.90;;;;;;5053430;28;20048;-41
2022/05/29 00:51:24;;;;;;;13.65;2.85;;;9.60;99.90;;;;;;5050569;28;20083;-41
2022/05/29 00:53:50;;;;;;;12.35;2.88;;;10.40;99.90;;;;;;5051877;28;20059;-42
2022/05/29 00:56:16;;;;;;;14.02;3.10;;;10.70;99.90;;;;;;5050882;28;20044;-42
2022/05/29 00:58:44;;;;;;;22.27;4.07;;;9.50;99.90;;;;;;5053701;28;21125;-40
2022/05/29 01:01:10;;;;;;;18.20;3.25;;;9.50;99.90;;;;;;5051679;28;20634;-43
2022/05/29 01:03:36;;;;;;;16.23;3.05;;;10.50;99.90;;;;;;5052655;28;20105;-45
2022/05/29 01:06:02;;;;;;;13.50;3.22;;;9.50;99.90;;;;;;5052309;28;20582;-40
2022/05/29 01:08:32;;;;;;;15.48;3.00;;;9.20;99.90;;;;;;5050413;28;20098;-42
2022/05/29 01:11:12;;;;;;;10.27;3.13;;;9.40;99.90;;;;;;5051056;28;20044;-41
2022/05/29 01:13:43;;;;;;;12.07;3.55;;;9.50;99.90;;;;;;5051068;28;20051;-42
2022/05/29 01:16:27;;;;;;;14.38;3.05;;;9.40;99.90;;;;;;5051891;28;20051;-41
2022/05/29 01:19:12;;;;;;;12.55;2.90;;;9.40;99.90;;;;;;5050955;28;20047;-41
2022/05/29 01:21:55;;;;;;;15.13;3.55;;;10.40;99.90;;;;;;5051450;28;20382;-43
2022/05/29 01:24:44;;;;;;;19.40;2.83;;;9.20;99.90;;;;;;5051247;28;20441;-41
2022/05/29 01:27:40;;;;;;;14.07;3.20;;;10.30;99.90;;;;;;5048500;28;20794;-41
2022/05/29 01:30:19;;;;;;;18.10;3.03;;;9.20;99.90;;;;;;5047411;28;20132;-40
2022/05/29 01:32:57;;;;;;;13.63;3.30;;;9.10;99.90;;;;;;5048465;28;20135;-41
2022/05/29 01:36:08;;;;;;;17.95;3.80;;;10.10;99.90;;;;;;5048181;28;20132;-40
2022/05/29 01:38:40;;;;;;;16.38;3.63;;;9.40;99.90;;;;;;4950914;28;20078;-41
2022/05/29 01:41:13;;;;;;;20.58;4.30;;;9.50;99.90;;;;;;4953450;28;20058;-42
2022/05/29 01:43:51;;;;;;;20.45;4.18;;;9.40;99.90;;;;;;4955100;28;20055;-41
2022/05/29 01:46:26;;;;;;;12.02;2.85;;;9.20;99.90;;;;;;4953329;28;20516;-41
2022/05/29 01:48:58;;;;;;;18.95;4.03;;;9.60;99.90;;;;;;4953435;28;20051;-40
2022/05/29 01:51:35;;;;;;;14.35;3.63;;;9.50;99.90;;;;;;4953251;28;20245;-40
2022/05/29 01:54:24;;;;;;;11.32;3.10;;;9.40;99.90;;;;;;4954958;28;20496;-42
2022/05/29 01:57:03;;;;;;;23.48;5.30;;;9.30;99.90;;;;;;4954735;28;20042;-42
2022/05/29 02:00:00;;;;;;;16.98;3.40;;;9.60;99.90;;;;;;4955290;28;20054;-42
2022/05/29 02:02:49;;;;;;;16.15;4.00;;;9.60;99.90;;;;;;4935534;28;20145;-42
2022/05/29 02:05:21;;;;;;;12.55;2.88;;;9.40;99.90;;;;;;4916947;28;20055;-41
2022/05/29 02:07:52;;;;;;;13.85;3.53;;;9.40;99.90;;;;;;4916816;29;20192;-40
2022/05/29 02:10:31;;;;;;;15.52;3.28;;;9.60;99.90;;;;;;4916045;29;20040;-41
2022/05/29 02:13:06;;;;;;;19.35;3.53;;;9.60;99.90;;;;;;4919933;28;20056;-40
2022/05/29 02:15:39;;;;;;;10.18;2.80;;;10.30;99.90;;;;;;4977075;28;20050;-43
2022/05/29 02:18:10;;;;;;;14.90;3.38;;;11.00;99.90;;;;;;4976107;28;20050;-40
2022/05/29 02:20:43;;;;;;;16.90;4.38;;;9.70;99.90;;;;;;4973631;28;20574;-41
2022/05/29 02:23:36;;;;;;;12.55;3.13;;;9.50;99.90;;;;;;4976356;28;20050;-41
2022/05/29 02:26:04;;;;;;;16.67;3.20;;;9.70;99.90;;;;;;4991248;28;20057;-41
2022/05/29 02:28:40;;;;;;;15.68;2.85;;;9.50;99.90;;;;;;4992072;28;20050;-41
2022/05/29 02:31:30;;;;;;;13.95;4.00;;;10.20;99.90;;;;;;4991131;28;20581;-41
2022/05/29 02:34:22;;;;;;;14.63;2.55;;;9.80;99.90;;;;;;4992551;28;20042;-40
2022/05/29 02:37:17;;;;;;;10.98;2.25;;;9.70;99.90;;;;;;4991140;28;20249;-41
2022/05/29 02:39:57;;;;;;;17.02;4.38;;;9.50;99.90;;;;;;5008319;28;20557;-40
2022/05/29 02:42:36;;;;;;;11.05;2.40;;;9.60;99.90;;;;;;5000121;28;20061;-40
2022/05/29 02:45:12;;;;;;;15.68;2.88;;;10.80;99.90;;;;;;5010324;28;20139;-40
2022/05/29 02:47:42;;;;;;;13.90;2.40;;;9.80;99.90;;;;;;5009617;28;20072;-40
2022/05/29 02:50:32;;;;;;;12.18;3.03;;;10.60;99.90;;;;;;4993673;28;21096;-41
2022/05/29 02:53:05;;;;;;;13.73;3.05;;;9.70;99.90;;;;;;5011142;28;20325;-41
2022/05/29 02:55:31;;;;;;;12.95;3.63;;;9.60;99.90;;;;;;5010313;28;20041;-44
2022/05/29 02:58:01;;;;;;;18.45;2.85;;;9.80;99.90;;;;;;5012021;28;20854;-42
2022/05/29 03:00:32;;;;;;;13.98;2.22;;;9.70;99.90;;;;;;5009982;28;20037;-47
2022/05/29 03:03:20;;;;;;;13.03;2.73;;;9.50;99.90;;;;;;5030762;28;20056;-43
2022/05/29 03:06:01;;;;;;;20.83;3.85;;;9.60;99.90;;;;;;5053482;28;20157;-47
2022/05/29 03:09:05;;;;;;;13.40;3.20;;;9.60;99.90;;;;;;5053902;28;20127;-42
2022/05/29 03:11:43;;;;;;;14.52;2.70;;;9.70;99.90;;;;;;5052889;28;20243;-42
2022/05/29 03:14:14;;;;;;;11.13;2.45;;;9.70;99.90;;;;;;5053370;28;20048;-43
2022/05/29 03:17:17;;;;;;;12.15;2.33;;;9.50;99.90;;;;;;5087003;28;20119;-45
2022/05/29 03:20:06;;;;;;;12.38;2.58;;;9.60;99.90;;;;;;5054101;28;20043;-43
2022/05/29 03:22:56;;;;;;;15.48;2.63;;;9.60;99.90;;;;;;5050475;28;20066;-42
2022/05/29 03:25:35;;;;;;;11.65;2.42;;;9.40;99.90;;;;;;5034462;28;20041;-42
2022/05/29 03:28:02;;;;;;;10.60;2.08;;;9.50;99.90;;;;;;5050340;28;20100;-43
2022/05/29 03:30:36;;;;;;;14.48;2.35;;;9.40;99.90;;;;;;5049748;28;20075;-45
2022/05/29 03:33:06;;;;;;;14.88;3.10;;;11.20;99.90;;;;;;5049288;28;20662;-43
2022/05/29 03:36:03;;;;;;;14.27;2.47;;;9.50;99.90;;;;;;5049580;28;20044;-42
2022/05/29 03:38:29;;;;;;;10.82;2.40;;;9.40;99.90;;;;;;5049368;28;20105;-41
2022/05/29 03:40:57;;;;;;;10.65;2.95;;;10.50;99.90;;;;;;5049508;28;20520;-42
2022/05/29 03:43:22;;;;;;;12.25;2.20;;;9.70;99.90;;;;;;5033446;28;20047;-45
2022/05/29 03:45:48;;;;;;;14.43;2.55;;;9.60;99.90;;;;;;5048072;28;20033;-43
2022/05/29 03:48:14;;;;;;;14.13;2.33;;;9.50;99.90;;;;;;5048563;28;20135;-43
2022/05/29 03:50:39;;;;;;;11.52;2.53;;;9.60;99.90;;;;;;5049992;28;20068;-42
2022/05/29 03:53:05;;;;;;;11.57;2.40;;;9.50;99.90;;;;;;5047925;28;20052;-43
2022/05/29 03:55:32;;;;;;;11.23;2.70;;;9.50;99.90;;;;;;5048313;28;20110;-46
2022/05/29 03:57:59;;;;;;;14.23;2.40;;;9.50;99.90;;;;;;5050045;28;20583;-43
2022/05/29 04:00:26;;;;;;;15.98;2.33;;;9.40;99.90;;;;;;5052282;28;20497;-41
2022/05/29 04:02:52;;;;;;;15.23;3.53;;;11.30;99.90;;;;;;5049718;28;20055;-41
2022/05/29 04:05:21;;;;;;;12.30;2.45;;;9.60;99.90;;;;;;5051961;28;20044;-44
2022/05/29 04:13:22;;;;;;;9.02;2.30;;;9.60;99.90;;;;;;5052331;28;20071;-42
2022/05/29 04:15:48;;;;;;;11.32;2.00;;;9.40;99.90;;;;;;5051520;28;20040;-46
2022/05/29 04:18:16;;;;;;;12.88;2.42;;;9.90;99.90;;;;;;5052234;28;20052;-41
2022/05/29 04:20:43;;;;;;;18.67;2.60;;;9.80;99.90;;;;;;5051358;28;20036;-43
2022/05/29 04:23:09;;;;;;;14.38;2.53;;;9.60;99.90;;;;;;5049056;28;20185;-46
2022/05/29 04:25:35;;;;;;;13.35;2.85;;;10.80;99.90;;;;;;5051414;28;20302;-42
2022/05/29 04:28:03;;;;;;;9.82;2.00;;;9.30;99.90;;;;;;5051317;28;20397;-42
2022/05/29 04:30:30;;;;;;;13.38;1.90;;;9.40;99.90;;;;;;5050528;28;20052;-46
2022/05/29 04:33:01;;;;;;;11.55;2.30;;;11.30;99.90;;;;;;5051788;28;20028;-42
2022/05/29 04:35:31;;;;;;;14.32;2.28;;;9.50;99.90;;;;;;5050736;28;20405;-46
2022/05/29 04:37:57;;;;;;;12.32;2.95;;;9.50;99.90;;;;;;5051250;28;20052;-44
2022/05/29 04:40:24;;;;;;;18.83;2.47;;;11.20;99.90;;;;;;5053507;28;20080;-43
2022/05/29 04:42:52;;;;;;;17.48;3.05;;;9.50;99.90;;;;;;5050777;28;20045;-42
2022/05/29 04:45:18;;;;;;;15.40;3.10;;;9.50;99.90;;;;;;5051414;28;20049;-42
2022/05/29 04:47:44;;;;;;;12.00;2.65;;;9.50;99.90;;;;;;5052130;28;20041;-44
2022/05/29 04:50:10;;;;;;;18.65;2.95;;;9.20;99.90;;;;;;5034707;28;20052;-43
2022/05/29 04:52:36;;;;;;;12.18;2.33;;;10.50;99.90;;;;;;5051092;28;20072;-45
2022/05/29 04:55:03;;;;;;;10.77;2.15;;;10.10;99.90;;;;;;5051276;28;20123;-44
2022/05/29 04:57:32;;;;;;;13.13;3.22;;;9.60;99.90;;;;;;5050438;28;20052;-47
2022/05/29 04:59:58;;;;;;;12.43;2.67;;;11.00;99.90;;;;;;5052889;28;20045;-46
2022/05/29 05:02:25;;;;;;;20.90;2.70;;;9.40;99.90;;;;;;5050958;28;20055;-44
2022/05/29 05:04:51;;;;;;;11.50;2.58;;;9.50;99.90;;;;;;5050867;28;20127;-46
2022/05/29 05:07:21;;;;;;;13.02;2.83;;;9.60;99.90;;;;;;5051110;28;20306;-46
2022/05/29 05:09:47;;;;;;;16.25;3.05;;;10.60;99.90;;;;;;5050797;28;20041;-47
2022/05/29 05:12:13;;;;;;;17.73;3.05;;;9.60;99.90;;;;;;5084451;28;20432;-42
2022/05/29 05:14:41;;;;;;;13.18;3.78;;;8.10;99.90;;;;;;5051711;28;20054;-45
2022/05/29 05:17:07;;;;;;;16.92;3.22;;;9.80;99.90;;;;;;5053259;28;20063;-44
2022/05/29 05:19:32;;;;;;;12.70;3.30;;;9.80;99.90;;;;;;5054102;28;20119;-44
2022/05/29 05:22:03;;;;;;;12.88;2.38;;;9.80;99.90;;;;;;5052451;28;20049;-44
2022/05/29 05:24:29;;;;;;;15.40;3.35;;;10.00;99.90;;;;;;5055037;28;20036;-43
2022/05/29 05:26:58;;;;;;;12.57;2.13;;;9.80;99.90;;;;;;5054550;28;20075;-44
2022/05/29 05:29:24;;;;;;;12.95;2.08;;;11.00;99.90;;;;;;5055120;28;20296;-46
2022/05/29 05:31:52;;;;;;;14.70;2.20;;;9.90;99.90;;;;;;5053806;28;20052;-45
2022/05/29 05:34:18;;;;;;;14.05;2.20;;;10.00;99.90;;;;;;5051622;28;20047;-42
2022/05/29 05:36:44;;;;;;;12.35;2.35;;;11.10;99.90;;;;;;5055007;28;20037;-43
2022/05/29 05:39:11;;;;;;;9.68;2.08;;;9.60;99.90;;;;;;5053959;28;20045;-45
2022/05/29 05:41:37;;;;;;;11.32;2.35;;;10.20;99.90;;;;;;5053468;28;20040;-44
2022/05/29 05:44:04;;;;;;;14.90;2.85;;;10.10;99.90;;;;;;5055455;28;20084;-42
2022/05/29 05:46:29;;;;;;;18.48;2.60;;;9.70;99.90;;;;;;5036658;28;20393;-43
2022/05/29 05:48:57;;;;;;;14.18;2.70;;;9.80;99.90;;;;;;5053828;28;20036;-43
2022/05/29 05:51:23;;;;;;;10.90;2.45;;;11.70;99.90;;;;;;5055732;28;20478;-43
2022/05/29 05:53:51;;;;;;;13.35;2.85;;;9.60;99.90;;;;;;5055682;28;20075;-46
2022/05/29 05:56:18;;;;;;;16.63;3.40;;;9.60;99.90;;;;;;5055216;28;20050;-46
2022/05/29 05:58:44;;;;;;;11.23;2.33;;;10.80;99.90;;;;;;5056146;28;20729;-44
2022/05/29 06:01:13;;;;;;;22.00;3.25;;;10.00;99.90;;;;;;5055144;28;20408;-47
2022/05/29 06:03:39;;;;;;;17.42;2.85;;;11.10;99.90;;;;;;5050836;28;20417;-44
2022/05/29 06:06:05;;;;;;;15.75;2.55;;;9.60;99.90;;;;;;5054667;28;20059;-42
2022/05/29 06:08:31;;;;;;;21.67;4.13;;;9.70;99.90;;;;;;5053405;28;20439;-43
2022/05/29 06:10:57;;;;;;;16.02;3.80;;;10.10;99.90;;;;;;5054347;28;20036;-46
2022/05/29 06:13:23;;;;;;;19.65;3.03;;;11.30;99.90;;;;;;5054754;28;20497;-43
2022/05/29 06:15:50;;;;;;;17.25;2.90;;;12.00;99.90;;;;;;5053238;28;20339;-44
2022/05/29 06:18:17;;;;;;;20.63;3.22;;;9.90;99.90;;;;;;5052374;28;20048;-44
2022/05/29 06:20:43;;;;;;;19.25;3.17;;;9.90;99.90;;;;;;5053425;28;20032;-42
2022/05/29 06:23:12;;;;;;;26.02;3.58;;;10.10;99.90;;;;;;5052226;28;20044;-45
2022/05/29 06:25:41;;;;;;;19.17;3.00;;;12.10;99.90;;;;;;5084487;28;20159;-42
2022/05/29 06:28:08;;;;;;;18.77;3.13;;;10.40;99.90;;;;;;5053303;28;21760;-42
2022/05/29 06:30:36;;;;;;;14.27;2.72;;;10.10;99.90;;;;;;5053922;28;20047;-42
2022/05/29 06:33:02;;;;;;;19.67;3.10;;;11.30;99.90;;;;;;5053206;28;20049;-41
2022/05/29 06:35:29;;;;;;;12.10;2.38;;;10.00;99.90;;;;;;5052999;28;20071;-42
2022/05/29 06:37:54;;;;;;;15.63;2.90;;;10.10;99.90;;;;;;5053727;28;20165;-41
2022/05/29 06:40:21;;;;;;;12.38;2.58;;;10.20;99.90;;;;;;5053630;28;20032;-42
2022/05/29 06:42:47;;;;;;;13.32;2.40;;;10.10;99.90;;;;;;5053561;28;20049;-40
2022/05/29 06:45:14;;;;;;;13.02;3.05;;;11.50;99.90;;;;;;5054157;28;20047;-42
2022/05/29 06:47:40;;;;;;;12.70;2.30;;;10.30;99.90;;;;;;5053738;28;20070;-41
2022/05/29 06:50:07;;;;;;;15.63;1.88;;;10.30;99.90;;;;;;5053701;28;20198;-41
2022/05/29 06:52:34;;;;;;;10.75;1.65;;;10.30;99.90;;;;;;5053125;28;20041;-43
2022/05/29 06:55:01;;;;;;;19.38;2.97;;;10.30;99.90;;;;;;5035347;28;20032;-42
2022/05/29 06:57:41;;;;;;;15.13;2.65;;;10.10;99.90;;;;;;5051448;28;20608;-41
2022/05/29 07:08:26;;;;;;;13.45;2.40;;;10.70;99.90;;;;;;5055158;28;20523;-40
2022/05/29 07:10:51;;;;;;;11.95;2.20;;;10.40;99.90;;;;;;5054542;28;20040;-44
2022/05/29 07:13:17;;;;;;;12.48;2.25;;;10.30;99.90;;;;;;5053247;28;20032;-41
2022/05/29 07:15:46;;;;;;;9.82;1.83;;;11.20;99.90;;;;;;5052934;28;20474;-41
2022/05/29 07:18:13;;;;;;;10.65;1.90;;;10.50;99.90;;;;;;5053172;28;20112;-42
2022/05/29 07:20:38;;;;;;;13.73;3.05;;;10.50;99.90;;;;;;5054983;28;20133;-41
2022/05/29 07:23:06;;;;;;;9.02;1.55;;;10.40;99.90;;;;;;5050486;28;20028;-45
2022/05/29 07:25:31;;;;;;;9.07;1.50;;;11.50;99.90;;;;;;5053274;28;20041;-41
2022/05/29 07:27:58;;;;;;;6.85;1.73;;;12.00;99.90;;;;;;5053950;28;20055;-41
2022/05/29 07:30:23;;;;;;;10.90;2.53;;;10.50;99.90;;;;;;5053132;28;20038;-41
2022/05/29 07:32:49;;;;;;;10.23;1.80;;;10.30;99.90;;;;;;5051427;28;20052;-43
2022/05/29 07:35:17;;;;;;;16.70;1.92;;;10.20;99.90;;;;;;5051050;28;20039;-42
2022/05/29 07:37:43;;;;;;;8.57;1.40;;;10.10;99.90;;;;;;5053025;28;20327;-41
2022/05/29 07:40:09;;;;;;;10.60;2.35;;;11.30;99.90;;;;;;5052016;28;20055;-42
2022/05/29 07:45:20;;;;;;;12.30;2.17;;;10.20;99.90;;;;;;5051848;28;20083;-41
2022/05/29 07:47:46;;;;;;;11.40;1.73;;;10.20;99.90;;;;;;5052780;28;20068;-41
2022/05/29 07:50:19;;;;;;;8.50;1.98;;;10.40;99.90;;;;;;5052754;28;20055;-45
2022/05/29 07:52:46;;;;;;;12.65;2.03;;;10.20;99.90;;;;;;5051744;28;20044;-42
2022/05/29 07:55:13;;;;;;;11.65;2.33;;;10.30;99.90;;;;;;5050817;28;20044;-40
2022/05/29 07:57:39;;;;;;;13.18;1.80;;;12.00;99.90;;;;;;5050466;28;20051;-40
2022/05/29 08:00:07;;;;;;;10.70;1.55;;;10.60;99.90;;;;;;5051853;28;20040;-40
2022/05/29 08:02:34;;;;;;;9.63;1.58;;;10.50;99.90;;;;;;5050934;28;20086;-40
2022/05/29 08:05:02;;;;;;;11.00;1.77;;;10.40;99.90;;;;;;5052810;28;20049;-40
2022/05/29 08:07:30;;;;;;;8.90;1.58;;;11.30;99.90;;;;;;5051148;28;20389;-40
2022/05/29 08:09:58;;;;;;;9.98;1.75;;;12.10;99.90;;;;;;5052198;28;20032;-41
2022/05/29 08:12:24;;;;;;;8.30;2.13;;;10.40;99.90;;;;;;5050127;28;20037;-41
2022/05/29 08:14:49;;;;;;;10.02;1.45;;;10.40;99.90;;;;;;5051516;28;20089;-40
2022/05/29 08:17:16;;;;;;;9.98;2.00;;;10.40;99.90;;;;;;5050043;28;20051;-42
2022/05/29 08:19:41;;;;;;;9.55;1.67;;;10.50;99.90;;;;;;5047389;28;20043;-41
2022/05/29 08:22:07;;;;;;;8.68;1.52;;;10.30;99.90;;;;;;5051356;28;20056;-43
2022/05/29 08:32:59;;;;;;;7.65;1.40;;;11.00;99.90;;;;;;5029623;28;20048;-43
2022/05/29 08:35:25;;;;;;;8.60;1.10;;;11.70;99.90;;;;;;5030138;28;20052;-41
2022/05/29 08:37:50;;;;;;;7.68;1.55;;;10.80;99.90;;;;;;5030267;28;20143;-41
2022/05/29 08:40:16;;;;;;;8.50;1.83;;;10.90;99.90;;;;;;5028819;28;20056;-44
2022/05/29 08:42:42;;;;;;;7.30;1.90;;;10.80;99.90;;;;;;5029708;28;20056;-40
2022/05/29 08:45:09;;;;;;;7.72;1.25;;;10.50;99.90;;;;;;5030308;28;20057;-40
2022/05/29 08:47:36;;;;;;;7.53;1.40;;;10.70;99.90;;;;;;5030037;28;20045;-44
2022/05/29 08:50:04;;;;;;;14.80;2.15;;;11.90;99.90;;;;;;5034076;28;20060;-45
2022/05/29 08:52:47;;;;;;;9.80;1.85;;;8.90;99.90;;;;;;5015875;28;20513;-42
2022/05/29 08:55:25;;;;;;;8.25;1.30;;;10.70;99.90;;;;;;5033050;28;20049;-43
2022/05/29 08:58:14;;;;;;;10.88;1.85;;;10.80;99.90;;;;;;5014574;28;20151;-42
2022/05/29 09:01:04;;;;;;;9.60;2.00;;;10.60;99.90;;;;;;5001104;28;20045;-45
2022/05/29 09:03:44;;;;;;;8.15;1.58;;;11.00;99.90;;;;;;5033013;28;20056;-42
2022/05/29 09:06:16;;;;;;;9.50;1.35;;;10.90;99.90;;;;;;5015836;28;20135;-40
2022/05/29 09:08:56;;;;;;;;;;;10.70;99.90;;;;;;5032363;28;20044;-42
2022/05/29 09:11:51;;;;;;;8.65;1.33;;;10.60;99.90;;;;;;5053229;28;19924;-45
2022/05/29 09:14:32;;;;;;;9.73;1.50;;;10.90;99.90;;;;;;5053867;28;20489;-45
2022/05/29 09:17:06;;;;;;;10.65;1.52;;;10.90;99.90;;;;;;5055350;28;20055;-40
2022/05/29 09:19:50;;;;;;;10.68;2.03;;;11.80;99.90;;;;;;5056088;28;20051;-42
2022/05/29 09:22:39;;;;;;;9.07;1.60;;;11.00;99.90;;;;;;5024595;28;20438;-44
2022/05/29 09:25:28;;;;;;;9.52;1.80;;;11.20;99.90;;;;;;5055090;28;20036;-40
2022/05/29 09:27:54;;;;;;;15.18;1.63;;;11.20;99.90;;;;;;5054326;28;20300;-41
2022/05/29 09:30:19;;;;;;;9.63;1.55;;;11.40;99.90;;;;;;5055385;28;20049;-43
2022/05/29 09:32:56;;;;;;;13.10;1.63;;;11.40;99.90;;;;;;5055878;28;22010;-42
2022/05/29 09:35:59;;;;;;;11.23;1.65;;;11.20;99.90;;;;;;5053070;28;20497;-43
2022/05/29 09:38:40;;;;;;;6.93;1.20;;;11.10;99.90;;;;;;5054276;28;20044;-42
2022/05/29 09:41:13;;;;;;;12.82;1.75;;;11.10;99.90;;;;;;5086479;28;20045;-43
2022/05/29 09:44:01;;;;;;;8.63;1.60;;;11.00;99.90;;;;;;5054256;28;20053;-41
2022/05/29 09:46:32;;;;;;;4.80;1.30;;;11.40;99.90;;;;;;5041176;28;20274;-43
2022/05/29 09:52:00;;;;;;;7.88;1.27;;;12.90;99.90;;;;;;5054891;28;20536;-40
2022/05/29 09:54:29;;;;;;;9.90;1.20;;;11.50;99.90;;;;;;5055714;28;20496;-40
2022/05/29 09:57:22;;;;;;;9.65;1.55;;;12.50;99.90;;;;;;5055325;28;20041;-43
2022/05/29 09:59:51;;;;;;;9.02;1.70;;;12.30;99.90;;;;;;5054471;28;20598;-41
2022/05/29 10:02:27;;;;;;;12.90;1.35;;;13.60;99.90;;;;;;5087201;28;20517;-41
2022/05/29 10:04:58;;;;;;;8.68;1.33;;;13.10;99.90;;;;;;5055629;28;20501;-41
2022/05/29 10:07:37;;;;;;;9.07;1.00;;;13.50;99.90;;;;;;5037063;28;20048;-41
2022/05/29 10:10:09;;;;;;;7.03;1.40;;;12.10;99.90;;;;;;5055921;28;20224;-42
2022/05/29 10:12:44;;;;;;;12.73;1.92;;;12.10;99.90;;;;;;5054691;28;20211;-42
2022/05/29 10:15:30;;;;;;;7.53;1.90;;;11.80;99.90;;;;;;5054635;28;21057;-41
2022/05/29 10:18:00;;;;;;;11.13;1.85;;;13.20;99.90;;;;;;5011593;28;20060;-42
2022/05/29 10:20:38;;;;;;;10.20;1.45;;;12.90;99.90;;;;;;5012528;28;20104;-43
2022/05/29 10:23:08;;;;;;;8.13;1.38;;;11.60;99.90;;;;;;4995168;28;20267;-43
2022/05/29 10:25:56;;;;;;;8.27;1.27;;;12.20;99.90;;;;;;5012201;28;20108;-43
2022/05/29 10:28:29;;;;;;;7.53;1.35;;;12.30;99.90;;;;;;4993059;28;20857;-46
2022/05/29 10:31:06;;;;;;;7.50;1.40;;;12.00;99.90;;;;;;5009622;28;20065;-43
2022/05/29 10:33:34;;;;;;;12.35;1.50;;;13.30;99.90;;;;;;4992124;28;20045;-41
2022/05/29 10:36:18;;;;;;;9.55;1.40;;;11.80;99.90;;;;;;5010487;28;20152;-41
2022/05/29 10:38:45;;;;;;;5.45;1.17;;;11.80;99.90;;;;;;5010597;28;20041;-43
2022/05/29 10:41:12;;;;;;;8.07;1.80;;;11.90;99.90;;;;;;5010275;28;20033;-44
2022/05/29 10:43:51;;;;;;;8.35;1.40;;;13.40;99.90;;;;;;5010010;28;20123;-40
2022/05/29 10:46:22;;;;;;;13.05;1.60;;;11.80;99.90;;;;;;4993405;28;20053;-43
2022/05/29 10:49:26;;;;;;;11.38;1.48;;;12.30;99.90;;;;;;4993423;28;20045;-42
2022/05/29 10:52:11;;;;;;;7.93;1.38;;;12.20;99.90;;;;;;5010287;28;20050;-42
2022/05/29 10:55:15;;;;;;;6.65;1.23;;;12.10;99.90;;;;;;5023566;28;20059;-41
2022/05/29 10:57:58;;;;;;;9.40;1.35;;;12.30;99.90;;;;;;5049187;28;20141;-42
2022/05/29 11:01:01;;;;;;;9.98;1.15;;;12.10;99.90;;;;;;5048451;28;20047;-41
2022/05/29 11:03:45;;;;;;;6.70;1.45;;;12.00;99.90;;;;;;5016832;28;20044;-44
2022/05/29 11:07:05;;;;;;;10.20;1.73;;;11.70;99.90;;;;;;5049220;28;20068;-43
2022/05/29 11:10:02;;;;;;;8.32;1.52;;;11.50;99.90;;;;;;5009074;28;20042;-45
2022/05/29 11:12:50;;;;;;;7.95;1.13;;;11.70;99.90;;;;;;5007983;28;20152;-42
2022/05/29 11:15:33;;;;;;;7.90;1.27;;;11.80;99.90;;;;;;5009884;28;20054;-43
2022/05/29 11:18:09;;;;;;;7.07;1.23;;;11.90;99.90;;;;;;5010409;28;20125;-42
2022/05/29 11:21:00;;;;;;;8.38;1.60;;;14.00;99.90;;;;;;5009562;28;20103;-41
2022/05/29 11:24:05;;;;;;;8.50;1.50;;;12.20;99.90;;;;;;5010078;28;20049;-41
2022/05/29 11:26:45;;;;;;;11.20;1.63;;;12.40;99.90;;;;;;4952829;28;20187;-43
2022/05/29 11:29:45;;;;;;;11.23;1.50;;;11.30;99.90;;;;;;4923881;28;20530;-41
2022/05/29 11:32:22;;;;;;;8.85;1.40;;;12.60;99.90;;;;;;4934964;29;20549;-46
2022/05/29 11:35:03;;;;;;;8.05;1.67;;;12.70;99.90;;;;;;4932193;29;20599;-42
2022/05/29 11:37:28;;;;;;;8.75;1.65;;;13.30;99.90;;;;;;4931463;29;20051;-43
2022/05/29 11:40:12;;;;;;;13.63;1.67;;;12.90;99.90;;;;;;4916061;29;20061;-43
2022/05/29 11:43:07;;;;;;;11.40;1.98;;;12.50;99.90;;;;;;4931354;29;20451;-42
2022/05/29 11:51:40;;;;;;;13.63;2.35;;;12.50;99.90;;;;;;4950468;28;20165;-41
2022/05/29 11:54:23;;;;;;;9.93;1.85;;;12.40;99.90;;;;;;4951773;28;20039;-41
2022/05/29 11:56:54;;;;;;;10.77;1.63;;;12.00;99.90;;;;;;4949944;28;20928;-41
2022/05/29 11:59:57;;;;;;;11.40;2.00;;;12.20;99.90;;;;;;4949907;28;20043;-42
2022/05/29 12:02:37;;;;;;;13.00;2.95;;;12.20;99.90;;;;;;4955190;28;20090;-43
2022/05/29 12:05:34;;;;;;;8.38;1.67;;;12.70;99.90;;;;;;4960215;28;20042;-44
2022/05/29 12:08:27;;;;;;;5.65;1.23;;;11.90;99.90;;;;;;4969108;28;20058;-41
2022/05/29 12:11:11;;;;;;;;;;;11.90;99.90;;;;;;4970500;28;20042;-41
2022/05/29 12:13:45;;;;;;;7.70;1.05;;;11.90;99.90;;;;;;4969830;28;19953;-43
2022/05/29 12:16:13;;;;;;;5.75;1.27;;;12.30;99.90;;;;;;4969558;28;20050;-41
2022/05/29 12:18:50;;;;;;;8.52;1.38;;;12.70;99.90;;;;;;4967832;28;20821;-44
2022/05/29 12:21:26;;;;;;;5.63;1.17;;;12.60;99.90;;;;;;4963743;28;20509;-41
2022/05/29 12:23:54;;;;;;;8.25;1.48;;;12.70;99.90;;;;;;5045201;28;20044;-44
2022/05/29 12:26:28;;;;;;;14.10;1.77;;;12.40;99.90;;;;;;4995671;28;20740;-42
2022/05/29 12:29:02;;;;;;;7.38;1.60;;;13.80;99.90;;;;;;5027517;28;20587;-43
2022/05/29 12:31:40;;;;;;;4.93;1.20;;;13.20;99.90;;;;;;5029539;28;20057;-43
2022/05/29 12:34:15;;;;;;;9.93;2.28;;;13.30;99.90;;;;;;5028273;28;20939;-43
2022/05/29 12:36:59;;;;;;;14.65;1.83;;;13.80;99.90;;;;;;4992416;28;20047;-43
2022/05/29 12:39:39;;;;;;;10.23;1.20;;;13.30;99.90;;;;;;5028703;28;20556;-43
2022/05/29 12:42:22;;;;;;;10.18;1.75;;;13.40;99.90;;;;;;5029192;28;20132;-45
2022/05/29 12:45:03;;;;;;;7.53;1.40;;;13.20;99.90;;;;;;5044522;28;20131;-40
2022/05/29 12:47:56;;;;;;;6.78;0.95;;;13.10;99.90;;;;;;5051671;28;20048;-41
2022/05/29 12:50:45;;;;;;;6.63;1.20;;;12.90;99.90;;;;;;5053135;28;20040;-41
2022/05/29 12:53:39;;;;;;;6.60;1.42;;;13.00;99.90;;;;;;5053122;28;20795;-42
2022/05/29 12:56:33;;;;;;;10.38;1.55;;;12.90;99.90;;;;;;5051584;28;20829;-42
2022/05/29 12:59:05;;;;;;;11.40;1.33;;;12.70;99.90;;;;;;5052206;28;20049;-42
2022/05/29 13:01:47;;;;;;;10.23;1.42;;;13.20;99.90;;;;;;5051625;28;20128;-42
2022/05/29 13:04:33;;;;;;;7.07;1.15;;;12.80;99.90;;;;;;5052893;28;20194;-41
2022/05/29 13:07:37;;;;;;;12.95;1.60;;;13.10;99.90;;;;;;5053242;28;20106;-40
2022/05/29 13:10:25;;;;;;;8.88;1.20;;;12.80;99.90;;;;;;5049614;28;20053;-41
2022/05/29 13:13:03;;;;;;;9.07;1.45;;;13.20;99.90;;;;;;5050917;28;20051;-41
2022/05/29 13:15:35;;;;;;;11.30;1.40;;;15.30;99.90;;;;;;5032767;28;20052;-41
2022/05/29 13:18:26;;;;;;;9.32;3.67;;;13.20;99.90;;;;;;5052942;28;20477;-41
2022/05/29 13:21:19;;;;;;;20.88;11.48;;;13.70;99.90;;;;;;5051681;28;20088;-42
2022/05/29 13:23:52;;;;;;;8.80;2.05;;;13.30;99.90;;;;;;5052264;28;20032;-41
2022/05/29 13:26:28;;;;;;;14.98;3.08;;;14.10;99.90;;;;;;5050863;28;20033;-44
2022/05/29 13:28:59;;;;;;;11.15;2.33;;;12.60;99.90;;;;;;5049594;28;20053;-41
2022/05/29 13:31:27;;;;;;;13.73;2.53;;;12.50;99.90;;;;;;5052399;28;20041;-42
2022/05/29 13:33:57;;;;;;;13.48;2.17;;;12.10;99.90;;;;;;5044861;28;20048;-44
2022/05/29 13:36:59;;;;;;;11.70;3.33;;;13.70;99.90;;;;;;5051810;28;20044;-42
2022/05/29 13:39:28;;;;;;;;;;;11.60;99.90;;;;;;5051642;28;20793;-41
2022/05/29 13:42:29;;;;;;;23.08;17.27;;;11.20;99.90;;;;;;5050674;28;20308;-41
2022/05/29 13:44:56;;;;;;;12.70;4.40;;;11.20;99.90;;;;;;4991897;28;20050;-41
2022/05/29 13:47:36;;;;;;;11.10;4.10;;;11.00;99.90;;;;;;4991672;28;20073;-41
2022/05/29 13:50:11;;;;;;;10.13;4.00;;;12.70;99.90;;;;;;4992785;28;20046;-41
2022/05/29 13:52:42;;;;;;;11.27;3.42;;;11.00;99.90;;;;;;5009114;28;20046;-43
2022/05/29 13:55:18;;;;;;;18.57;6.43;;;11.20;99.90;;;;;;4991633;28;20253;-42